Time;durP1;ratioP1;P1;durP2;ratioP2;P2;SDS_P1;SDS_P2;PMS_P1;PMS_P2;Temp;Humidity;BMP_temperature;BMP_pressure;BME280_temperature;BME280_humidity;BME280_pressure;Samples;Min_cycle;Max_cycle;Signal;HPM_P1;HPM_P2
2021/04/23 00:02:58;;;;;;;6.15;3.47;;;7.00;99.90;;;;;;6721367;88;20227;-73
2021/04/23 00:12:59;;;;;;;10.20;3.50;;;6.60;99.90;;;;;;6726288;88;20384;-75
2021/04/23 00:23:06;;;;;;;8.85;3.50;;;6.50;99.90;;;;;;6727361;88;20684;-74
2021/04/23 00:33:07;;;;;;;11.05;3.58;;;6.50;99.90;;;;;;6728034;88;20669;-75
2021/04/23 00:43:08;;;;;;;7.00;3.50;;;6.20;99.90;;;;;;6723006;88;20214;-74
2021/04/23 00:53:11;;;;;;;9.52;3.08;;;6.20;99.90;;;;;;6723051;88;20246;-75
2021/04/23 01:03:13;;;;;;;8.07;3.15;;;6.10;99.90;;;;;;6718880;88;20197;-74
2021/04/23 01:13:13;;;;;;;9.73;3.70;;;5.80;99.90;;;;;;6731297;88;20219;-75
2021/04/23 01:23:14;;;;;;;11.27;3.58;;;5.80;99.90;;;;;;6736228;88;20224;-75
2021/04/23 01:33:15;;;;;;;10.23;3.55;;;5.60;99.90;;;;;;6729637;88;20251;-74
2021/04/23 01:43:18;;;;;;;16.35;3.50;;;5.50;99.90;;;;;;6727692;88;20328;-74
2021/04/23 01:53:19;;;;;;;9.57;3.47;;;5.50;99.90;;;;;;6730908;88;20225;-75
2021/04/23 02:03:20;;;;;;;10.55;3.70;;;5.30;99.90;;;;;;6726579;88;20212;-75
2021/04/23 02:13:25;;;;;;;9.43;3.40;;;5.10;99.90;;;;;;6727240;88;20203;-75
2021/04/23 02:23:26;;;;;;;10.82;3.45;;;5.00;99.90;;;;;;6723762;88;20189;-74
2021/04/23 02:33:27;;;;;;;9.10;3.70;;;5.00;99.90;;;;;;6728686;88;20188;-75
2021/04/23 02:43:31;;;;;;;8.07;3.92;;;4.80;99.90;;;;;;6722931;88;20216;-75
2021/04/23 02:53:33;;;;;;;11.23;3.80;;;4.80;99.90;;;;;;6724502;88;20177;-75
2021/04/23 03:03:34;;;;;;;16.45;4.50;;;4.70;99.90;;;;;;6727091;88;20188;-75
2021/04/23 03:13:35;;;;;;;9.38;4.25;;;4.60;99.90;;;;;;6735816;88;20214;-75
2021/04/23 03:23:36;;;;;;;11.32;4.22;;;4.60;99.90;;;;;;6742365;88;20492;-75
2021/04/23 03:33:37;;;;;;;11.73;4.50;;;4.50;99.90;;;;;;6740960;88;20193;-76
2021/04/23 03:43:38;;;;;;;13.55;4.20;;;4.40;99.90;;;;;;6738670;88;20193;-75
2021/04/23 03:53:39;;;;;;;9.98;4.30;;;4.30;99.90;;;;;;6734109;88;20927;-75
2021/04/23 04:03:40;;;;;;;12.02;4.50;;;4.20;99.90;;;;;;6739760;88;20208;-76
2021/04/23 04:13:41;;;;;;;11.40;4.53;;;4.20;99.90;;;;;;6725177;88;20202;-74
2021/04/23 04:23:41;;;;;;;9.98;4.50;;;4.10;99.90;;;;;;6732954;88;20719;-74
2021/04/23 04:33:42;;;;;;;10.73;4.57;;;4.10;99.90;;;;;;6723924;88;20201;-74
2021/04/23 04:43:43;;;;;;;9.95;4.75;;;3.90;99.90;;;;;;6731489;88;20236;-75
2021/04/23 04:53:44;;;;;;;13.15;5.15;;;3.80;99.90;;;;;;6729837;88;20188;-75
2021/04/23 05:03:44;;;;;;;12.43;4.80;;;3.70;99.90;;;;;;6723648;88;20189;-75
2021/04/23 05:13:45;;;;;;;13.98;5.30;;;3.80;99.90;;;;;;6726046;88;20185;-74
2021/04/23 05:23:45;;;;;;;11.63;4.95;;;3.70;99.90;;;;;;6726224;88;20258;-74
2021/04/23 05:33:46;;;;;;;12.82;4.95;;;3.80;99.90;;;;;;6729376;88;20316;-75
2021/04/23 05:43:47;;;;;;;14.15;5.35;;;4.00;99.90;;;;;;6723071;88;20274;-75
2021/04/23 05:53:48;;;;;;;15.25;5.12;;;4.50;99.90;;;;;;6726709;88;20721;-75
2021/04/23 06:03:49;;;;;;;16.87;5.37;;;5.10;99.90;;;;;;6719012;88;20477;-74
2021/04/23 06:13:50;;;;;;;16.25;5.37;;;5.70;99.90;;;;;;6723201;88;20537;-75
2021/04/23 06:23:51;;;;;;;12.95;5.25;;;6.10;99.90;;;;;;6724760;88;20229;-75
2021/04/23 06:33:51;;;;;;;17.05;5.60;;;6.70;99.90;;;;;;6738436;88;20185;-76
2021/04/23 06:43:53;;;;;;;19.20;5.50;;;7.20;99.90;;;;;;6736590;88;20331;-76
2021/04/23 06:53:54;;;;;;;14.87;5.45;;;7.50;99.90;;;;;;6724617;88;21075;-76
2021/04/23 07:03:55;;;;;;;12.85;5.37;;;8.10;99.90;;;;;;6718266;88;20398;-75
2021/04/23 07:13:55;;;;;;;16.35;5.90;;;8.80;99.90;;;;;;6720284;88;20276;-76
2021/04/23 07:23:56;;;;;;;14.57;5.72;;;9.40;99.90;;;;;;6732116;88;20222;-76
2021/04/23 07:33:57;;;;;;;13.50;5.40;;;9.60;99.90;;;;;;6723418;88;20206;-76
2021/04/23 07:43:58;;;;;;;12.88;4.57;;;10.20;99.90;;;;;;6726070;88;20197;-75
2021/04/23 07:53:58;;;;;;;16.45;5.03;;;10.50;99.90;;;;;;6732399;88;20201;-75
2021/04/23 08:03:59;;;;;;;10.15;4.40;;;10.80;99.90;;;;;;6721730;88;20186;-76
2021/04/23 08:14:00;;;;;;;9.65;4.85;;;11.90;99.20;;;;;;6725658;88;20613;-75
2021/04/23 08:24:00;;;;;;;14.77;4.90;;;11.60;98.60;;;;;;6730850;88;20243;-75
2021/04/23 08:34:01;;;;;;;10.57;4.60;;;11.60;98.70;;;;;;6734042;88;20356;-75
2021/04/23 08:44:02;;;;;;;14.32;5.28;;;13.00;96.40;;;;;;6728907;88;20540;-77
2021/04/23 08:54:04;;;;;;;12.00;5.22;;;13.60;93.60;;;;;;6731155;88;20208;-75
2021/04/23 09:04:04;;;;;;;11.70;5.35;;;13.70;93.40;;;;;;6738514;88;20214;-75
2021/04/23 09:14:19;;;;;;;12.80;5.50;;;14.30;91.80;;;;;;6733346;88;20303;-76
2021/04/23 09:24:32;;;;;;;12.37;5.20;;;15.30;89.30;;;;;;6726972;88;20514;-76
2021/04/23 09:34:32;;;;;;;11.40;4.68;;;15.80;82.60;;;;;;6727281;88;20209;-75
2021/04/23 09:44:41;;;;;;;11.55;4.65;;;16.30;82.00;;;;;;6721268;88;20209;-76
2021/04/23 09:54:53;;;;;;;11.38;5.32;;;16.30;79.90;;;;;;6711262;88;20659;-75
2021/04/23 10:04:55;;;;;;;12.60;4.82;;;16.50;77.10;;;;;;6709544;88;20659;-76
2021/04/23 10:15:02;;;;;;;9.43;4.50;;;17.40;73.20;;;;;;6711978;88;20212;-76
2021/04/23 10:25:05;;;;;;;46.53;20.95;;;17.30;71.50;;;;;;6711248;88;20183;-78
2021/04/23 10:35:06;;;;;;;8.82;4.45;;;18.10;68.80;;;;;;6720670;88;20263;-77
2021/04/23 10:45:24;;;;;;;12.75;4.95;;;18.40;66.50;;;;;;6726162;88;20189;-77
2021/04/23 11:04:29;;;;;;;8.95;4.00;;;19.00;65.40;;;;;;6792974;86;20794;-77
2021/04/23 11:14:32;;;;;;;11.52;4.30;;;19.20;61.00;;;;;;6783589;87;20217;-78
2021/04/23 11:24:33;;;;;;;8.55;3.70;;;20.10;61.90;;;;;;6768471;87;20206;-77
2021/04/23 11:34:38;;;;;;;8.50;4.28;;;20.30;58.00;;;;;;6768898;87;20168;-78
2021/04/23 11:44:54;;;;;;;9.15;3.80;;;20.50;57.80;;;;;;6764709;87;20211;-78
2021/04/23 11:54:54;;;;;;;7.30;4.03;;;20.90;56.90;;;;;;6774998;87;20184;-79
2021/04/23 12:04:55;;;;;;;11.10;4.00;;;20.30;57.10;;;;;;6781682;87;20241;-79
2021/04/23 12:14:55;;;;;;;10.85;3.80;;;21.00;55.30;;;;;;6771886;87;20221;-80
2021/04/23 12:25:34;;;;;;;8.98;3.70;;;21.20;54.50;;;;;;6769844;87;20191;-80
2021/04/23 12:35:43;;;;;;;8.25;3.55;;;21.40;51.50;;;;;;6776615;88;20191;-80
2021/04/23 12:45:51;;;;;;;8.55;3.50;;;21.90;52.70;;;;;;6781912;87;20194;-79
2021/04/23 12:55:53;;;;;;;9.10;4.30;;;22.50;53.30;;;;;;6757168;88;20372;-79
2021/04/23 13:05:54;;;;;;;7.05;3.62;;;22.10;48.90;;;;;;6761983;87;20280;-79
2021/04/23 13:16:04;;;;;;;8.65;4.10;;;22.20;51.00;;;;;;6761670;88;20602;-80
2021/04/23 13:26:11;;;;;;;5.80;3.33;;;22.80;49.70;;;;;;6761167;87;20200;-78
2021/04/23 13:36:12;;;;;;;9.40;3.70;;;23.20;48.40;;;;;;6757149;88;20225;-78
2021/04/23 13:46:14;;;;;;;7.20;3.33;;;23.30;47.60;;;;;;6759857;88;21011;-78
2021/04/23 13:56:27;;;;;;;11.48;3.60;;;22.20;48.40;;;;;;6760939;88;20196;-79
2021/04/23 14:06:28;;;;;;;7.60;3.90;;;21.90;49.80;;;;;;6762651;87;20238;-79
2021/04/23 14:16:30;;;;;;;7.60;3.70;;;22.40;46.60;;;;;;6765824;87;20868;-78
2021/04/23 14:26:31;;;;;;;9.70;4.15;;;22.30;48.50;;;;;;6771417;87;20195;-77
2021/04/23 14:36:31;;;;;;;8.77;4.12;;;21.90;47.60;;;;;;6766166;87;20198;-76
2021/04/23 14:46:33;;;;;;;10.40;3.80;;;21.90;48.80;;;;;;6765092;87;20184;-77
2021/04/23 14:56:34;;;;;;;7.60;3.78;;;21.10;48.20;;;;;;6762596;87;20184;-76
2021/04/23 15:06:35;;;;;;;12.73;4.20;;;21.50;48.90;;;;;;6760175;87;20188;-76
2021/04/23 15:16:36;;;;;;;8.90;4.10;;;21.00;48.50;;;;;;6768088;87;20542;-76
2021/04/23 15:26:37;;;;;;;7.60;3.70;;;20.80;47.50;;;;;;6761313;87;21046;-76
2021/04/23 15:36:37;;;;;;;8.98;3.95;;;20.90;47.50;;;;;;6765749;87;20206;-75
2021/04/23 15:46:38;;;;;;;13.40;4.05;;;20.80;46.10;;;;;;6766599;87;20310;-77
2021/04/23 15:56:39;;;;;;;8.67;4.43;;;20.60;48.10;;;;;;6760753;87;20298;-75
2021/04/23 16:06:39;;;;;;;9.38;4.10;;;20.10;47.20;;;;;;6735502;88;20271;-78
2021/04/23 16:16:41;;;;;;;9.80;4.00;;;20.20;49.00;;;;;;6741234;88;20827;-78
2021/04/23 16:26:41;;;;;;;6.62;3.58;;;20.00;49.10;;;;;;6740041;88;20244;-75
2021/04/23 16:36:42;;;;;;;6.25;3.70;;;19.50;47.30;;;;;;6736124;88;20196;-79
2021/04/23 16:46:42;;;;;;;11.85;3.95;;;18.60;47.90;;;;;;6744099;88;20302;-76
2021/04/23 16:56:44;;;;;;;6.70;3.50;;;18.70;49.50;;;;;;6748632;86;20189;-80
2021/04/23 17:06:44;;;;;;;7.62;3.47;;;18.60;49.60;;;;;;6764944;87;20179;-74
2021/04/23 17:16:45;;;;;;;7.62;3.58;;;18.20;49.40;;;;;;6754065;87;20306;-74
2021/04/23 17:26:46;;;;;;;9.85;4.18;;;17.80;49.50;;;;;;6758385;88;20219;-76
2021/04/23 17:36:46;;;;;;;13.13;4.32;;;17.50;51.00;;;;;;6756215;87;20954;-75
2021/04/23 17:46:47;;;;;;;11.02;4.22;;;16.90;55.10;;;;;;6757976;88;20657;-77
2021/04/23 17:56:47;;;;;;;12.00;4.87;;;15.70;58.50;;;;;;6769909;87;20183;-84
2021/04/23 18:06:50;;;;;;;13.25;4.07;;;15.20;60.30;;;;;;6790254;87;20213;-81
2021/04/23 18:16:51;;;;;;;12.07;3.90;;;14.60;61.90;;;;;;6771098;87;20183;-80
2021/04/23 18:26:52;;;;;;;11.70;3.60;;;14.20;63.30;;;;;;6773974;87;20197;-80
2021/04/23 18:36:52;;;;;;;11.85;4.60;;;13.90;64.60;;;;;;6763365;76;20553;-76
2021/04/23 18:46:53;;;;;;;8.52;3.80;;;13.50;65.50;;;;;;6753919;87;20180;-78
2021/04/23 18:56:54;;;;;;;8.30;4.00;;;13.20;66.50;;;;;;6752380;88;20267;-78
2021/04/23 19:06:54;;;;;;;8.77;3.90;;;12.90;67.30;;;;;;6747659;87;20547;-76
2021/04/23 19:16:55;;;;;;;12.90;3.62;;;12.50;68.80;;;;;;6757312;87;20196;-75
2021/04/23 19:26:56;;;;;;;11.35;3.60;;;12.30;69.50;;;;;;6752090;87;20209;-76
2021/04/23 19:36:57;;;;;;;10.52;3.58;;;11.90;70.80;;;;;;6756779;87;20242;-78
2021/04/23 19:46:58;;;;;;;10.07;3.92;;;11.80;72.00;;;;;;6749965;87;20185;-78
2021/04/23 19:56:58;;;;;;;13.15;4.97;;;11.60;73.80;;;;;;6746799;87;20840;-77
2021/04/23 20:06:59;;;;;;;13.05;5.03;;;11.20;76.70;;;;;;6750747;87;20264;-77
2021/04/23 20:16:59;;;;;;;16.93;5.33;;;11.10;80.60;;;;;;6750364;87;20222;-77
2021/04/23 20:27:00;;;;;;;12.05;4.70;;;10.80;85.20;;;;;;6751248;87;20500;-77
2021/04/23 20:37:01;;;;;;;13.87;5.20;;;10.60;88.60;;;;;;6754550;87;20218;-77
2021/04/23 20:47:02;;;;;;;13.40;5.55;;;10.40;90.90;;;;;;6761152;87;20497;-77
2021/04/23 20:57:03;;;;;;;13.80;5.53;;;10.20;92.30;;;;;;6755945;87;20217;-77
2021/04/23 21:07:03;;;;;;;12.80;5.85;;;10.10;93.60;;;;;;6746303;88;20199;-77
2021/04/23 21:17:04;;;;;;;16.02;6.40;;;9.90;95.00;;;;;;6751923;87;20183;-76
2021/04/23 21:27:05;;;;;;;18.10;6.78;;;9.70;96.40;;;;;;6747909;87;20213;-76
2021/04/23 21:37:05;;;;;;;15.90;7.70;;;9.50;98.00;;;;;;6747707;88;20216;-77
2021/04/23 21:47:06;;;;;;;19.17;6.70;;;9.30;99.00;;;;;;6752545;87;20196;-77
2021/04/23 21:57:07;;;;;;;15.52;6.12;;;9.20;99.90;;;;;;6750031;87;20185;-77
2021/04/23 22:07:07;;;;;;;14.27;6.00;;;8.90;99.90;;;;;;6748547;87;20207;-77
2021/04/23 22:17:08;;;;;;;13.93;7.05;;;8.80;99.90;;;;;;6754569;87;20677;-76
2021/04/23 22:27:09;;;;;;;18.70;8.85;;;8.80;99.90;;;;;;6750252;87;20164;-77
2021/04/23 22:37:09;;;;;;;20.83;9.85;;;8.60;99.90;;;;;;6748699;87;20207;-77
2021/04/23 22:47:10;;;;;;;18.73;9.52;;;8.50;99.90;;;;;;6751614;88;20210;-77
2021/04/23 22:57:11;;;;;;;20.95;8.88;;;8.40;99.90;;;;;;6752219;87;20376;-77
2021/04/23 23:07:11;;;;;;;19.30;8.75;;;8.30;99.90;;;;;;6753299;87;20655;-77
2021/04/23 23:17:12;;;;;;;19.30;8.85;;;8.30;99.90;;;;;;6748897;87;20255;-77
2021/04/23 23:27:13;;;;;;;20.27;8.30;;;8.10;99.90;;;;;;6751106;87;20424;-77
2021/04/23 23:37:13;;;;;;;18.08;7.30;;;7.90;99.90;;;;;;6752308;87;20497;-77
2021/04/23 23:47:14;;;;;;;13.57;6.15;;;7.80;99.90;;;;;;6754505;87;20180;-77
2021/04/23 23:57:15;;;;;;;14.98;6.57;;;7.70;99.90;;;;;;6755492;87;20187;-77
